Time;durP1;ratioP1;P1;durP2;ratioP2;P2;SDS_P1;SDS_P2;PMS_P1;PMS_P2;Temp;Humidity;BMP_temperature;BMP_pressure;BME280_temperature;BME280_humidity;BME280_pressure;Samples;Min_cycle;Max_cycle;Signal;HPM_P1;HPM_P2
2022/06/25 04:03:02;;;;;;;17.30;12.45;;;16.70;99.90;;;;;;6309496;22;20112;-85
2022/06/25 04:05:28;;;;;;;;;;;16.80;99.90;;;;;;6259647;22;20011;-79
2022/06/25 04:08:00;;;;;;;16.00;12.70;;;16.70;99.90;;;;;;6283572;22;19911;-81
2022/06/25 04:10:35;;;;;;;15.00;12.52;;;16.70;99.90;;;;;;6312705;22;20085;-84
2022/06/25 04:13:00;;;;;;;16.17;12.00;;;16.70;99.90;;;;;;6312744;22;20444;-84
2022/06/25 04:15:26;;;;;;;17.60;12.48;;;16.80;99.90;;;;;;6312880;22;20059;-83
2022/06/25 04:17:52;;;;;;;14.88;11.90;;;16.70;99.90;;;;;;6287726;22;20011;-84
2022/06/25 04:20:17;;;;;;;14.13;11.15;;;16.70;99.90;;;;;;6288069;22;20003;-83
2022/06/25 04:22:43;;;;;;;13.52;11.65;;;16.80;99.90;;;;;;6287402;22;20099;-82
2022/06/25 04:25:09;;;;;;;13.82;11.23;;;16.80;99.90;;;;;;6313875;22;20383;-83
2022/06/25 04:30:19;;;;;;;13.02;10.65;;;16.80;99.90;;;;;;6312979;22;20018;-83
2022/06/25 04:32:44;;;;;;;13.15;11.18;;;16.90;99.90;;;;;;6341173;22;20011;-84
2022/06/25 04:35:10;;;;;;;14.35;11.23;;;16.90;99.90;;;;;;6287475;22;20046;-84
2022/06/25 04:37:36;;;;;;;14.82;11.05;;;16.90;99.90;;;;;;6313879;22;20018;-82
2022/06/25 04:40:02;;;;;;;14.93;11.70;;;16.90;99.90;;;;;;6312916;22;20445;-84
2022/06/25 04:42:28;;;;;;;15.50;10.65;;;16.90;99.90;;;;;;6313129;22;20011;-84
2022/06/25 04:44:53;;;;;;;14.18;10.90;;;16.90;99.90;;;;;;6341464;22;20003;-84
2022/06/25 04:47:19;;;;;;;13.98;11.27;;;16.90;99.90;;;;;;6287826;22;20371;-84
2022/06/25 04:49:44;;;;;;;14.60;10.80;;;17.00;99.90;;;;;;6314008;22;20014;-83
2022/06/25 04:52:10;;;;;;;11.75;10.23;;;17.00;99.90;;;;;;6287554;22;20015;-83
2022/06/25 04:54:36;;;;;;;13.88;10.82;;;17.00;99.90;;;;;;6341793;22;20007;-84
2022/06/25 04:57:02;;;;;;;12.75;10.27;;;17.00;99.90;;;;;;6288138;22;20436;-83
2022/06/25 04:59:28;;;;;;;12.63;10.23;;;17.10;99.90;;;;;;6314209;22;20017;-84
2022/06/25 05:01:54;;;;;;;13.63;10.23;;;17.10;99.90;;;;;;6319761;22;20037;-83
2022/06/25 05:04:20;;;;;;;14.70;10.02;;;17.10;99.90;;;;;;6339175;22;20056;-83
2022/06/25 05:06:45;;;;;;;13.25;9.00;;;17.10;99.90;;;;;;6339836;22;20013;-83
2022/06/25 05:09:11;;;;;;;12.77;9.98;;;17.10;99.90;;;;;;6339295;22;20007;-83
2022/06/25 05:11:37;;;;;;;13.10;9.55;;;17.10;99.90;;;;;;6313272;22;20015;-83
2022/06/25 05:14:03;;;;;;;14.80;9.80;;;17.20;99.90;;;;;;6339070;22;20022;-83
2022/06/25 05:16:28;;;;;;;14.38;9.88;;;17.20;99.90;;;;;;6340314;22;20045;-83
2022/06/25 05:18:54;;;;;;;12.65;9.75;;;17.20;99.90;;;;;;6338860;22;20048;-82
2022/06/25 05:21:20;;;;;;;14.07;9.60;;;17.20;99.90;;;;;;6339075;22;20401;-83
2022/06/25 05:23:45;;;;;;;12.15;9.45;;;17.30;99.90;;;;;;6312668;22;20015;-82
2022/06/25 05:26:11;;;;;;;12.50;9.10;;;17.40;99.90;;;;;;6338607;22;20014;-83
2022/06/25 05:28:37;;;;;;;12.65;9.25;;;17.40;99.90;;;;;;6340624;22;20550;-85
2022/06/25 05:31:03;;;;;;;13.35;9.32;;;17.40;99.90;;;;;;6338636;22;20015;-84
2022/06/25 05:33:29;;;;;;;11.23;9.30;;;17.40;99.90;;;;;;6311937;22;20010;-85
2022/06/25 05:35:55;;;;;;;12.45;9.55;;;17.50;99.90;;;;;;6313134;22;20091;-83
2022/06/25 05:38:21;;;;;;;13.23;9.35;;;17.50;99.90;;;;;;6313487;22;20367;-85
2022/06/25 05:40:47;;;;;;;14.10;8.93;;;17.60;99.90;;;;;;6312633;22;20067;-83
2022/06/25 05:43:13;;;;;;;11.25;8.80;;;17.60;99.90;;;;;;6312844;22;20067;-84
2022/06/25 05:45:39;;;;;;;11.80;7.80;;;17.60;99.90;;;;;;6337743;22;20011;-84
2022/06/25 05:48:05;;;;;;;11.02;8.85;;;17.70;99.90;;;;;;6312671;22;20017;-83
2022/06/25 05:50:31;;;;;;;9.98;7.75;;;17.80;99.90;;;;;;6312786;22;20011;-84
2022/06/25 05:52:57;;;;;;;10.70;6.95;;;17.90;99.90;;;;;;6313613;22;20068;-85
2022/06/25 05:55:24;;;;;;;11.90;6.38;;;18.00;99.90;;;;;;6342010;22;20053;-87
2022/06/25 05:57:50;;;;;;;8.43;5.88;;;18.10;99.90;;;;;;6341797;22;20352;-85
2022/06/25 06:00:19;;;;;;;9.93;5.90;;;18.10;99.90;;;;;;6341290;22;20509;-85
2022/06/25 06:02:45;;;;;;;9.43;5.88;;;18.20;99.90;;;;;;6341186;22;20015;-87
2022/06/25 06:05:11;;;;;;;11.68;5.50;;;18.20;99.90;;;;;;6316089;22;20007;-84
2022/06/25 06:07:37;;;;;;;8.27;5.32;;;18.20;99.90;;;;;;6343921;22;20443;-84
2022/06/25 06:10:04;;;;;;;7.95;4.97;;;18.30;99.90;;;;;;6319904;22;20011;-85
2022/06/25 06:12:30;;;;;;;7.22;4.82;;;18.30;99.90;;;;;;6345515;22;20063;-86
2022/06/25 06:14:56;;;;;;;8.40;5.00;;;18.30;99.90;;;;;;6321769;22;20339;-85
2022/06/25 06:17:22;;;;;;;9.75;4.82;;;18.50;99.90;;;;;;6345565;22;20010;-84
2022/06/25 06:19:47;;;;;;;8.40;4.72;;;18.50;99.90;;;;;;6346966;22;20338;-85
2022/06/25 06:22:14;;;;;;;9.00;4.93;;;18.60;99.90;;;;;;6344663;22;20018;-85
2022/06/25 06:24:39;;;;;;;11.10;4.25;;;18.60;99.90;;;;;;6319167;22;20007;-86
2022/06/25 06:27:05;;;;;;;8.30;4.80;;;18.60;99.90;;;;;;6344403;22;20015;-81
2022/06/25 06:29:31;;;;;;;8.57;4.72;;;18.60;99.90;;;;;;6341406;22;20379;-85
2022/06/25 06:31:57;;;;;;;7.55;4.38;;;18.60;99.90;;;;;;6315445;22;20014;-85
2022/06/25 06:34:24;;;;;;;5.88;4.15;;;18.70;99.90;;;;;;6289685;22;20019;-82
2022/06/25 06:36:50;;;;;;;6.60;4.40;;;18.80;99.90;;;;;;6344712;22;20014;-87
2022/06/25 06:39:16;;;;;;;7.78;4.53;;;18.80;99.90;;;;;;6342780;22;20080;-86
2022/06/25 06:41:41;;;;;;;7.25;3.95;;;18.90;99.90;;;;;;6341251;22;20107;-84
2022/06/25 06:44:07;;;;;;;8.07;4.22;;;19.00;99.90;;;;;;6343019;22;20047;-84
2022/06/25 06:46:33;;;;;;;6.22;4.30;;;19.10;99.90;;;;;;6315864;22;20049;-84
2022/06/25 06:48:58;;;;;;;7.03;4.15;;;19.10;99.90;;;;;;6346118;22;20018;-84
2022/06/25 06:51:24;;;;;;;7.90;3.90;;;19.20;99.90;;;;;;6341668;22;20021;-85
2022/06/25 06:53:50;;;;;;;7.82;4.45;;;19.30;99.90;;;;;;6343608;22;20333;-83
2022/06/25 06:56:17;;;;;;;8.38;3.90;;;19.30;99.90;;;;;;6343030;22;20072;-84
2022/06/25 06:58:43;;;;;;;8.60;4.00;;;19.40;99.90;;;;;;6317179;22;20025;-86
2022/06/25 07:01:09;;;;;;;8.13;4.00;;;19.50;99.90;;;;;;6316009;22;20470;-83
2022/06/25 07:03:34;;;;;;;8.93;3.75;;;19.50;99.90;;;;;;6289562;22;20015;-84
2022/06/25 07:06:00;;;;;;;10.73;4.43;;;19.60;99.90;;;;;;6342759;22;20007;-86
2022/06/25 07:08:26;;;;;;;7.97;4.10;;;19.50;99.90;;;;;;6315652;22;20034;-83
2022/06/25 07:10:52;;;;;;;7.90;3.90;;;19.60;99.90;;;;;;6342420;22;20007;-83
2022/06/25 07:13:18;;;;;;;6.88;3.97;;;19.60;99.90;;;;;;6290032;22;20015;-83
2022/06/25 07:15:44;;;;;;;7.32;4.30;;;19.70;99.90;;;;;;6316017;22;20018;-84
2022/06/25 07:18:09;;;;;;;7.82;3.97;;;19.70;99.90;;;;;;6314028;22;20319;-83
2022/06/25 07:20:35;;;;;;;8.70;4.13;;;19.70;99.90;;;;;;6315592;22;20029;-82
2022/06/25 07:23:02;;;;;;;6.55;4.10;;;19.70;99.90;;;;;;6288221;22;20326;-83
2022/06/25 07:25:27;;;;;;;9.20;3.45;;;19.80;99.90;;;;;;6289115;22;20444;-83
2022/06/25 07:27:57;;;;;;;7.63;4.80;;;19.80;99.90;;;;;;6316060;22;20018;-85
2022/06/25 07:30:24;;;;;;;7.28;4.60;;;19.80;99.90;;;;;;6314448;22;20314;-84
2022/06/25 07:32:50;;;;;;;6.07;3.97;;;19.80;99.90;;;;;;6293431;22;20448;-86
2022/06/25 07:35:16;;;;;;;6.40;4.43;;;19.90;99.90;;;;;;6316874;22;20015;-86
2022/06/25 07:37:42;;;;;;;6.78;4.20;;;19.90;99.90;;;;;;6291425;22;20022;-85
2022/06/25 07:40:09;;;;;;;5.82;4.10;;;20.00;99.90;;;;;;6290733;22;20015;-84
2022/06/25 07:42:34;;;;;;;8.25;3.97;;;20.00;99.90;;;;;;6314146;22;20082;-83
2022/06/25 07:45:00;;;;;;;6.15;3.75;;;20.00;99.90;;;;;;6341895;22;20006;-82
2022/06/25 07:47:25;;;;;;;5.55;3.53;;;20.10;99.90;;;;;;6313736;22;20092;-83
2022/06/25 07:52:35;;;;;;;8.00;3.53;;;20.20;99.90;;;;;;6313460;22;20023;-84
2022/06/25 07:55:03;;;;;;;6.50;3.67;;;20.30;99.90;;;;;;6288031;22;20010;-83
2022/06/25 08:00:05;;;;;;;6.90;3.53;;;20.50;99.90;;;;;;6331209;22;20114;-85
2022/06/25 08:03:05;;;;;;;7.70;3.08;;;20.60;99.90;;;;;;6278225;22;20019;-83
2022/06/25 08:05:49;;;;;;;9.68;3.42;;;20.60;99.90;;;;;;6282686;22;20007;-82
2022/06/25 08:08:15;;;;;;;7.72;3.50;;;20.50;99.90;;;;;;6310999;22;20007;-85
2022/06/25 08:10:48;;;;;;;7.60;3.53;;;20.50;99.90;;;;;;6283397;22;20046;-85
2022/06/25 08:13:26;;;;;;;6.05;3.17;;;20.60;99.90;;;;;;6310747;22;20046;-81
2022/06/25 08:15:53;;;;;;;5.65;3.10;;;20.70;99.90;;;;;;6257152;22;20019;-83
2022/06/25 08:18:20;;;;;;;5.88;2.80;;;20.80;99.90;;;;;;6309241;22;20011;-85
2022/06/25 08:20:46;;;;;;;6.55;3.33;;;20.80;99.90;;;;;;6283435;22;20015;-83
2022/06/25 08:23:12;;;;;;;9.65;3.28;;;20.90;99.90;;;;;;6281144;22;20011;-83
2022/06/25 08:25:38;;;;;;;6.90;3.10;;;20.90;99.90;;;;;;6281890;22;20011;-82
2022/06/25 08:28:04;;;;;;;5.00;3.10;;;21.00;99.90;;;;;;6282155;22;20471;-82
2022/06/25 08:30:29;;;;;;;6.78;3.70;;;21.00;99.90;;;;;;6309643;22;20015;-83
2022/06/25 08:32:55;;;;;;;6.60;3.67;;;21.00;99.90;;;;;;6256986;22;20072;-84
2022/06/25 08:35:22;;;;;;;9.43;3.90;;;21.00;99.90;;;;;;6256733;22;20018;-81
2022/06/25 08:37:49;;;;;;;9.02;3.53;;;21.00;99.90;;;;;;6256550;22;20441;-80
2022/06/25 08:43:02;;;;;;;4.53;2.30;;;20.90;99.90;;;;;;6306382;22;20049;-83
2022/06/25 08:45:34;;;;;;;8.82;2.95;;;21.00;99.90;;;;;;6309927;22;20018;-82
2022/06/25 08:48:16;;;;;;;6.05;2.97;;;21.10;99.90;;;;;;6309848;22;20376;-80
2022/06/25 08:50:55;;;;;;;;;;;;;;;;;;;;;
2022/06/25 08:53:23;;;;;;;6.05;3.63;;;21.00;99.90;;;;;;6260276;22;20007;-83
2022/06/25 08:55:49;;;;;;;4.30;2.88;;;21.00;99.90;;;;;;6287432;22;20484;-82
2022/06/25 08:58:15;;;;;;;7.20;3.20;;;21.10;99.90;;;;;;6340514;22;20034;-81
2022/06/25 09:00:42;;;;;;;5.38;2.78;;;21.10;99.90;;;;;;6312265;22;20444;-82
2022/06/25 09:03:09;;;;;;;8.10;2.63;;;21.20;99.90;;;;;;6287305;22;20014;-84
2022/06/25 09:05:40;;;;;;;8.20;2.88;;;21.30;99.90;;;;;;6340692;22;20017;-83
2022/06/25 09:08:08;;;;;;;6.22;2.40;;;21.40;99.90;;;;;;6286888;22;20089;-82
2022/06/25 09:10:35;;;;;;;4.47;1.80;;;21.70;99.90;;;;;;6286691;22;20452;-82
2022/06/25 09:13:06;;;;;;;5.80;1.95;;;21.90;99.90;;;;;;6312684;22;20029;-87
2022/06/25 09:15:34;;;;;;;5.82;2.15;;;22.00;99.90;;;;;;6313140;22;20057;-85
2022/06/25 09:18:13;;;;;;;3.88;1.80;;;22.10;99.90;;;;;;6340907;22;20055;-85
2022/06/25 09:21:01;;;;;;;4.50;1.73;;;22.10;99.90;;;;;;6286749;22;20015;-82
2022/06/25 09:23:31;;;;;;;3.80;1.50;;;22.20;99.90;;;;;;6312735;22;20011;-82
2022/06/25 09:26:08;;;;;;;3.25;1.73;;;22.30;99.90;;;;;;6313096;22;20042;-84
2022/06/25 09:28:46;;;;;;;5.35;1.75;;;22.50;99.90;;;;;;6341237;22;20007;-84
2022/06/25 09:31:12;;;;;;;3.65;1.40;;;22.40;99.90;;;;;;6287517;22;20089;-82
2022/06/25 09:33:40;;;;;;;6.65;2.10;;;22.20;99.90;;;;;;6286671;22;20029;-81
2022/06/25 09:36:10;;;;;;;3.97;1.58;;;22.00;99.90;;;;;;6287209;22;20044;-84
2022/06/25 09:38:49;;;;;;;3.50;1.80;;;21.90;99.90;;;;;;6286658;22;20059;-82
2022/06/25 09:41:15;;;;;;;4.03;1.50;;;21.80;99.90;;;;;;6335267;22;20022;-84
2022/06/25 09:43:47;;;;;;;2.88;1.38;;;21.80;99.90;;;;;;6287000;22;20015;-80
2022/06/25 09:46:24;;;;;;;3.80;1.23;;;21.80;99.90;;;;;;6289514;22;20421;-83
2022/06/25 09:48:50;;;;;;;2.97;1.60;;;21.90;99.90;;;;;;6312552;22;20062;-83
2022/06/25 09:51:22;;;;;;;3.53;1.67;;;22.00;99.90;;;;;;6299713;22;20067;-82
2022/06/25 09:53:53;;;;;;;5.82;1.85;;;22.10;99.90;;;;;;6309232;22;20008;-82
2022/06/25 09:56:22;;;;;;;4.05;1.58;;;22.20;99.90;;;;;;6281618;22;20451;-82
2022/06/25 09:58:49;;;;;;;5.22;2.17;;;22.40;99.90;;;;;;6308847;22;20495;-81
2022/06/25 10:01:17;;;;;;;3.10;1.60;;;22.50;99.90;;;;;;6308860;22;20031;-82
2022/06/25 10:03:44;;;;;;;3.35;1.60;;;22.60;99.90;;;;;;6256596;22;20015;-82
2022/06/25 10:06:12;;;;;;;3.08;1.50;;;22.50;99.90;;;;;;6256402;22;20015;-82
2022/06/25 10:08:40;;;;;;;2.95;1.50;;;22.50;99.90;;;;;;6309091;22;20003;-82
2022/06/25 10:11:08;;;;;;;3.40;1.70;;;22.40;99.90;;;;;;6257020;22;20011;-83
2022/06/25 10:13:34;;;;;;;3.50;1.70;;;22.40;99.90;;;;;;6255949;22;20451;-84
2022/06/25 10:16:01;;;;;;;4.20;1.80;;;22.50;99.90;;;;;;6255945;22;20011;-84
2022/06/25 10:18:28;;;;;;;4.63;1.67;;;22.60;99.90;;;;;;6257237;22;20514;-83
2022/06/25 10:20:54;;;;;;;4.65;2.00;;;22.50;99.90;;;;;;6256914;22;20456;-82
2022/06/25 10:23:21;;;;;;;5.30;1.50;;;22.50;99.90;;;;;;6255468;22;20008;-83
2022/06/25 10:25:48;;;;;;;5.75;1.80;;;22.40;99.90;;;;;;6280796;22;20083;-81
2022/06/25 10:28:23;;;;;;;4.03;1.67;;;22.20;99.90;;;;;;6281727;22;20468;-83
2022/06/25 10:30:53;;;;;;;;;;;22.00;99.90;;;;;;6314497;22;20026;-83
2022/06/25 10:33:24;;;;;;;5.57;2.30;;;21.90;99.90;;;;;;6312673;22;19915;-83
2022/06/25 10:36:08;;;;;;;1.75;1.38;;;21.90;99.90;;;;;;6286894;22;20014;-83
2022/06/25 10:38:34;;;;;;;6.18;1.75;;;21.90;99.90;;;;;;6339973;22;20007;-84
2022/06/25 10:43:58;;;;;;;3.75;1.80;;;22.00;99.90;;;;;;6281808;22;20027;-80
2022/06/25 10:46:28;;;;;;;4.57;1.75;;;22.10;99.90;;;;;;6308939;22;20007;-83
2022/06/25 10:49:17;;;;;;;5.07;1.90;;;22.30;99.90;;;;;;6255694;22;20007;-84
2022/06/25 10:51:52;;;;;;;3.72;1.85;;;22.60;99.90;;;;;;6310328;22;20413;-83
2022/06/25 10:54:26;;;;;;;4.55;2.00;;;22.80;99.90;;;;;;6283576;22;20134;-82
2022/06/25 10:56:54;;;;;;;3.93;1.87;;;22.80;99.90;;;;;;6257687;22;20130;-83
2022/06/25 10:59:32;;;;;;;5.60;2.08;;;22.70;99.90;;;;;;6257825;22;20436;-82
2022/06/25 11:02:20;;;;;;;5.28;1.90;;;22.60;99.90;;;;;;6266519;22;20105;-84
2022/06/25 11:04:58;;;;;;;4.30;1.83;;;22.40;99.90;;;;;;6313549;22;20020;-79
2022/06/25 11:07:32;;;;;;;3.42;1.90;;;22.20;99.90;;;;;;6291518;22;20022;-78
2022/06/25 11:10:00;;;;;;;3.47;1.90;;;22.20;99.90;;;;;;6321175;22;19995;-79
2022/06/25 11:12:29;;;;;;;3.75;1.77;;;22.10;99.90;;;;;;6317315;22;20035;-83
2022/06/25 11:15:02;;;;;;;3.08;2.00;;;22.00;99.90;;;;;;6316992;22;20015;-81
2022/06/25 11:17:29;;;;;;;3.85;1.80;;;22.00;99.90;;;;;;6286839;22;20015;-81
2022/06/25 11:20:08;;;;;;;3.20;1.80;;;21.90;99.90;;;;;;6286294;22;20015;-82
2022/06/25 11:22:44;;;;;;;5.55;2.13;;;21.80;99.90;;;;;;6287279;22;20061;-83
2022/06/25 11:30:39;;;;;;;4.20;2.00;;;21.70;99.90;;;;;;6312421;22;20026;-85
2022/06/25 11:33:09;;;;;;;3.00;1.88;;;21.80;99.90;;;;;;6312935;22;20015;-82
2022/06/25 11:35:40;;;;;;;4.32;2.17;;;21.80;99.90;;;;;;6310954;22;20015;-83
2022/06/25 11:38:16;;;;;;;3.85;2.20;;;21.90;99.90;;;;;;6311655;22;20044;-82
2022/06/25 11:40:42;;;;;;;4.35;2.03;;;22.00;99.90;;;;;;6285484;22;20023;-83
2022/06/25 11:43:09;;;;;;;3.75;2.20;;;22.00;99.90;;;;;;6285702;22;20007;-85
2022/06/25 11:45:52;;;;;;;3.95;2.28;;;22.00;99.90;;;;;;6310792;22;20038;-87
2022/06/25 11:48:18;;;;;;;4.85;2.50;;;22.00;99.90;;;;;;6310825;22;20072;-82
2022/06/25 11:50:45;;;;;;;4.93;2.10;;;21.90;99.90;;;;;;6309472;22;20007;-83
2022/06/25 11:53:11;;;;;;;3.35;2.08;;;21.90;99.90;;;;;;6309869;22;20086;-85
2022/06/25 11:55:39;;;;;;;5.70;2.60;;;21.90;99.90;;;;;;6309719;22;20015;-84
2022/06/25 11:58:05;;;;;;;3.88;2.30;;;21.80;99.90;;;;;;6310450;22;20419;-84
2022/06/25 12:00:31;;;;;;;4.82;2.90;;;21.70;99.90;;;;;;6309723;22;20011;-82
2022/06/25 12:03:05;;;;;;;4.18;2.40;;;21.60;99.90;;;;;;6340772;22;20015;-83
2022/06/25 12:05:33;;;;;;;7.32;3.85;;;21.50;99.90;;;;;;6341543;22;20015;-82
2022/06/25 12:07:59;;;;;;;9.65;4.18;;;21.40;99.90;;;;;;6312643;22;20097;-83
2022/06/25 12:10:29;;;;;;;8.02;4.03;;;21.20;99.90;;;;;;6313094;22;20357;-84
2022/06/25 12:12:55;;;;;;;4.95;3.92;;;21.10;99.90;;;;;;6288106;22;20064;-83
2022/06/25 12:15:29;;;;;;;5.10;3.80;;;21.00;99.90;;;;;;6340238;22;20014;-83
2022/06/25 12:18:03;;;;;;;11.38;4.30;;;21.00;99.90;;;;;;6313287;22;20082;-82
2022/06/25 12:20:29;;;;;;;9.52;4.78;;;20.90;99.90;;;;;;6313302;22;20010;-80
2022/06/25 12:22:57;;;;;;;7.05;4.35;;;20.90;99.90;;;;;;6340414;22;20360;-83
2022/06/25 12:25:28;;;;;;;9.00;3.95;;;21.00;99.90;;;;;;6313421;22;20460;-83
2022/06/25 12:27:54;;;;;;;6.80;4.32;;;21.10;99.90;;;;;;6313471;22;20060;-82
2022/06/25 12:30:25;;;;;;;7.38;4.20;;;21.30;99.90;;;;;;6341045;22;20082;-82
2022/06/25 12:32:52;;;;;;;8.65;3.75;;;21.50;99.90;;;;;;6341246;22;20014;-84
2022/06/25 12:35:23;;;;;;;4.90;3.40;;;21.70;99.90;;;;;;6341370;22;20007;-82
2022/06/25 12:38:17;;;;;;;5.25;3.47;;;21.90;99.90;;;;;;6314163;22;20014;-84
2022/06/25 12:40:43;;;;;;;7.00;4.07;;;22.10;99.90;;;;;;6341352;22;20344;-82
2022/06/25 12:43:10;;;;;;;5.00;3.58;;;22.40;99.90;;;;;;6313870;22;20017;-83
2022/06/25 12:45:38;;;;;;;4.57;3.53;;;22.60;99.90;;;;;;6342592;22;20015;-83
2022/06/25 12:48:05;;;;;;;5.00;3.53;;;22.90;99.90;;;;;;6288887;22;20011;-82
2022/06/25 12:50:33;;;;;;;5.38;3.53;;;23.00;99.90;;;;;;6342808;22;20028;-84
2022/06/25 12:53:25;;;;;;;6.05;3.50;;;22.90;99.90;;;;;;6289431;22;20022;-84
2022/06/25 12:55:51;;;;;;;8.45;3.88;;;22.90;99.90;;;;;;6310246;22;20021;-82
2022/06/25 12:58:18;;;;;;;5.18;3.35;;;22.70;99.90;;;;;;6342874;22;20027;-84
2022/06/25 13:00:46;;;;;;;4.68;3.65;;;22.60;99.90;;;;;;6289334;22;20011;-81
2022/06/25 13:03:12;;;;;;;8.55;4.20;;;22.60;99.90;;;;;;6288950;22;20093;-81
2022/06/25 13:05:38;;;;;;;6.90;4.03;;;22.50;99.90;;;;;;6314498;22;20015;-81
2022/06/25 13:08:05;;;;;;;5.85;4.10;;;22.50;99.90;;;;;;6314425;22;20158;-82
2022/06/25 13:10:31;;;;;;;7.55;4.53;;;22.40;99.90;;;;;;6313627;22;20111;-83
2022/06/25 13:12:57;;;;;;;7.20;4.07;;;22.40;99.90;;;;;;6341368;22;20010;-84
2022/06/25 13:15:24;;;;;;;5.88;4.18;;;22.30;99.90;;;;;;6340712;22;20098;-82
2022/06/25 13:17:51;;;;;;;6.05;4.15;;;22.30;99.90;;;;;;6342120;22;20010;-82
2022/06/25 13:20:18;;;;;;;7.05;4.28;;;22.30;99.90;;;;;;6313385;22;20395;-82
2022/06/25 13:22:44;;;;;;;6.30;4.15;;;22.50;99.90;;;;;;6342164;22;20051;-82
2022/06/25 13:25:10;;;;;;;7.10;3.72;;;22.60;99.90;;;;;;6341140;22;20444;-82
2022/06/25 13:27:40;;;;;;;6.53;3.63;;;22.70;99.90;;;;;;6314565;22;20007;-82
2022/06/25 13:30:07;;;;;;;5.13;3.40;;;22.80;99.90;;;;;;6341731;22;20006;-82
2022/06/25 13:32:32;;;;;;;5.65;3.72;;;22.80;99.90;;;;;;6312802;22;20014;-82
2022/06/25 13:35:00;;;;;;;4.65;2.90;;;22.90;99.90;;;;;;6340172;22;20021;-82
2022/06/25 13:37:26;;;;;;;4.25;2.60;;;23.00;99.90;;;;;;6341096;22;20085;-82
2022/06/25 13:39:51;;;;;;;4.38;2.30;;;22.90;99.90;;;;;;6312523;22;20046;-83
2022/06/25 13:42:17;;;;;;;5.35;2.17;;;23.00;99.90;;;;;;6287503;22;20017;-83
2022/06/25 13:44:43;;;;;;;3.10;1.98;;;23.20;99.90;;;;;;6287054;22;20107;-85
2022/06/25 13:47:11;;;;;;;3.70;1.50;;;23.10;99.90;;;;;;6340596;22;20038;-84
2022/06/25 13:49:37;;;;;;;4.03;2.28;;;23.20;99.90;;;;;;6312737;22;20021;-81
2022/06/25 13:52:04;;;;;;;6.07;1.85;;;23.20;99.90;;;;;;6339776;22;20454;-81
2022/06/25 13:54:30;;;;;;;1.65;1.20;;;23.20;99.90;;;;;;6286756;22;20069;-81
2022/06/25 13:57:02;;;;;;;2.55;1.10;;;23.10;99.90;;;;;;6287593;22;20019;-84
2022/06/25 13:59:28;;;;;;;2.17;1.13;;;23.00;99.90;;;;;;6286834;22;20018;-84
2022/06/25 14:01:54;;;;;;;3.03;1.20;;;23.00;99.90;;;;;;6286569;22;20013;-83
2022/06/25 14:04:19;;;;;;;2.95;1.15;;;22.90;99.90;;;;;;6286853;22;20046;-81
2022/06/25 14:06:46;;;;;;;2.70;1.58;;;22.90;99.90;;;;;;6312456;22;20011;-82
2022/06/25 14:09:12;;;;;;;2.45;1.33;;;22.80;99.90;;;;;;6340082;22;20039;-82
2022/06/25 14:11:39;;;;;;;2.45;1.60;;;23.10;99.90;;;;;;6312270;22;20386;-82
2022/06/25 14:14:06;;;;;;;2.13;1.38;;;23.30;99.90;;;;;;6313047;22;20011;-84
2022/06/25 14:16:32;;;;;;;1.88;1.10;;;23.50;99.90;;;;;;6312558;22;20018;-84
2022/06/25 14:18:58;;;;;;;1.38;1.00;;;23.40;99.90;;;;;;6286921;22;20015;-85
2022/06/25 14:23:56;;;;;;;2.10;1.30;;;23.20;99.90;;;;;;6371713;22;20025;-84
2022/06/25 14:26:26;;;;;;;3.10;1.80;;;23.20;99.90;;;;;;6344154;22;20018;-83
2022/06/25 14:28:52;;;;;;;5.95;4.90;;;23.10;99.90;;;;;;6374195;22;20006;-81
2022/06/25 14:31:18;;;;;;;11.68;8.80;;;23.00;99.90;;;;;;6332135;22;20336;-83
2022/06/25 14:33:44;;;;;;;12.15;9.10;;;22.70;99.90;;;;;;6288312;22;20011;-81
2022/06/25 14:44:36;;;;;;;9.68;7.50;;;22.50;99.90;;;;;;6246364;22;20019;-81
2022/06/25 14:47:02;;;;;;;10.05;7.07;;;22.70;99.90;;;;;;6314274;22;20014;-83
2022/06/25 14:49:28;;;;;;;10.13;7.30;;;22.50;99.90;;;;;;6314115;22;20013;-83
2022/06/25 14:51:54;;;;;;;11.23;7.65;;;22.50;99.90;;;;;;6287594;22;20046;-83
2022/06/25 14:54:20;;;;;;;9.60;7.95;;;22.40;99.90;;;;;;6288670;22;20037;-83
2022/06/25 14:56:46;;;;;;;11.48;8.07;;;22.30;99.90;;;;;;6288074;22;20093;-81
2022/06/25 15:34:58;;;;;;;11.93;7.57;;;22.30;99.90;;;;;;6302616;22;20445;-84
2022/06/25 15:43:55;;;;;;;10.43;6.65;;;22.40;99.90;;;;;;6310603;22;20031;-82
2022/06/25 19:52:25;;;;;;;;;;;;;;;;;;;;;
2022/06/25 19:54:51;;;;;;;13.73;6.40;;;19.80;99.90;;;;;;6282471;22;20015;-82
2022/06/25 19:57:26;;;;;;;16.58;7.72;;;19.80;99.90;;;;;;6283725;22;20007;-83
2022/06/25 20:00:05;;;;;;;;;;;;;;;;;;;;;
2022/06/25 20:02:31;;;;;;;13.30;6.25;;;19.80;99.90;;;;;;6281407;22;20012;-83
2022/06/25 20:04:59;;;;;;;18.58;7.53;;;19.80;99.90;;;;;;6282531;22;20015;-82
2022/06/25 20:07:25;;;;;;;15.27;6.88;;;19.80;99.90;;;;;;6256688;22;20015;-83
2022/06/25 20:09:53;;;;;;;17.23;7.20;;;19.70;99.90;;;;;;6256632;22;20086;-83
2022/06/25 20:12:19;;;;;;;19.77;7.90;;;19.70;99.90;;;;;;6257063;22;20334;-82
2022/06/25 20:14:45;;;;;;;14.48;7.32;;;19.70;99.90;;;;;;6256810;22;20015;-82
2022/06/25 20:17:11;;;;;;;16.13;7.40;;;19.70;99.90;;;;;;6282910;22;20011;-83
2022/06/25 20:19:40;;;;;;;16.98;8.55;;;19.70;99.90;;;;;;6282251;22;20037;-82
2022/06/25 20:22:06;;;;;;;16.48;8.02;;;19.70;99.90;;;;;;6308735;22;20015;-81
2022/06/25 20:24:32;;;;;;;16.02;8.10;;;19.60;99.90;;;;;;6256190;22;20007;-82
